Time;durP1;ratioP1;P1;durP2;ratioP2;P2;SDS_P1;SDS_P2;PMS_P1;PMS_P2;Temp;Humidity;BMP_temperature;BMP_pressure;BME280_temperature;BME280_humidity;BME280_pressure;Samples;Min_cycle;Max_cycle;Signal;HPM_P1;HPM_P2
2022/11/07 00:01:16;;;;;;;;;4.67;2.00;;;;;13.30;74.97;100701.63;5052819;28;45089;-59
2022/11/07 00:03:42;;;;;;;;;4.67;2.00;;;;;13.28;75.05;100698.94;5061481;28;45100;-60
2022/11/07 00:06:09;;;;;;;;;5.00;3.00;;;;;13.19;75.53;100686.28;5061539;28;45042;-59
2022/11/07 00:08:35;;;;;;;;;4.00;1.67;;;;;13.31;75.17;100704.34;5053765;28;45399;-60
2022/11/07 00:11:01;;;;;;;;;7.33;4.67;;;;;13.23;74.77;100697.97;5055139;28;44857;-59
2022/11/07 00:13:28;;;;;;;;;2.67;1.67;;;;;13.35;74.96;100714.28;5057261;28;45126;-59
2022/11/07 00:15:57;;;;;;;;;5.00;2.00;;;;;13.33;75.25;100701.72;5051477;28;45328;-59
2022/11/07 00:18:22;;;;;;;;;4.00;1.67;;;;;13.34;74.67;100703.53;5052624;28;45820;-59
2022/11/07 00:20:48;;;;;;;;;7.00;2.67;;;;;13.36;75.56;100710.72;5057385;28;64381;-61
2022/11/07 00:23:13;;;;;;;;;3.33;2.67;;;;;13.37;75.24;100708.94;5053221;28;44964;-59
2022/11/07 00:25:38;;;;;;;;;4.67;2.00;;;;;13.39;75.40;100713.44;5056341;28;45214;-61
2022/11/07 00:28:04;;;;;;;;;3.67;1.00;;;;;13.39;75.06;100713.44;5050292;28;45804;-59
2022/11/07 00:30:29;;;;;;;;;5.00;2.00;;;;;13.39;74.69;100708.06;5052551;28;45030;-60
2022/11/07 00:32:54;;;;;;;;;5.33;1.00;;;;;13.38;74.91;100705.38;5056359;28;57944;-61
2022/11/07 00:35:20;;;;;;;;;3.00;1.33;;;;;13.41;75.11;100711.72;5051221;28;47648;-60
2022/11/07 00:37:45;;;;;;;;;1.33;1.33;;;;;13.41;75.01;100703.66;5054467;28;51231;-59
2022/11/07 00:40:10;;;;;;;;;6.00;3.00;;;;;13.39;74.19;100699.13;5052462;28;44867;-60
2022/11/07 00:42:36;;;;;;;;;4.33;1.00;;;;;13.33;74.26;100689.22;5054041;28;45208;-59
2022/11/07 00:45:01;;;;;;;;;3.33;3.33;;;;;13.43;74.77;100714.41;5051234;28;45220;-60
2022/11/07 00:47:26;;;;;;;;;6.67;3.67;;;;;13.43;74.28;100709.94;5053848;28;45444;-60
2022/11/07 00:49:52;;;;;;;;;5.00;2.33;;;;;13.40;74.46;100707.22;5054068;28;48505;-60
2022/11/07 00:52:17;;;;;;;;;2.67;1.00;;;;;13.40;74.59;100698.25;5052019;28;45517;-60
2022/11/07 00:54:42;;;;;;;;;4.00;1.67;;;;;13.31;74.42;100687.34;5055122;28;45210;-59
2022/11/07 00:57:07;;;;;;;;;5.33;3.00;;;;;13.40;74.78;100700.94;5053474;28;57891;-60
2022/11/07 00:59:33;;;;;;;;;4.67;2.00;;;;;13.40;75.15;100706.31;5049243;28;60592;-60
2022/11/07 01:01:58;;;;;;;;;5.00;2.00;;;;;13.42;74.37;100704.53;5049872;28;46186;-59
2022/11/07 01:07:07;;;;;;;;;2.00;1.00;;;;;13.43;74.54;100699.19;5050855;28;45076;-60
2022/11/07 01:09:33;;;;;;;;;2.33;1.00;;;;;13.47;74.31;100704.63;5064758;28;45122;-59
2022/11/07 01:11:58;;;;;;;;;4.00;2.00;;;;;13.44;74.43;100701.00;5055931;28;45218;-60
2022/11/07 01:14:24;;;;;;;;;3.33;3.33;;;;;13.50;75.07;100712.72;5056927;28;45057;-59
2022/11/07 01:16:50;;;;;;;;;6.00;1.33;;;;;13.47;74.48;100702.81;5049598;28;46505;-63
2022/11/07 01:19:17;;;;;;;;;2.33;1.33;;;;;13.53;74.87;100710.97;5056868;28;45071;-59
2022/11/07 01:21:42;;;;;;;;;7.67;3.00;;;;;13.57;74.01;100707.44;5064442;28;45142;-60
2022/11/07 01:24:10;;;;;;;;;3.00;1.00;;;;;13.58;74.14;100719.09;5051298;28;45138;-60
2022/11/07 01:26:36;;;;;;;;;5.67;1.33;;;;;13.60;74.21;100712.84;5054408;28;45223;-60
2022/11/07 01:29:02;;;;;;;;;3.33;1.67;;;;;13.61;74.03;100716.41;5066067;28;45202;-60
2022/11/07 01:31:30;;;;;;;;;4.33;2.00;;;;;13.61;74.62;100705.69;5061978;28;45139;-59
2022/11/07 01:33:56;;;;;;;;;2.33;2.33;;;;;13.66;74.28;100713.81;5054162;28;45023;-60
2022/11/07 01:36:21;;;;;;;;;2.00;1.67;;;;;13.62;73.93;100707.50;5065220;28;45336;-59
2022/11/07 01:38:47;;;;;;;;;4.00;2.00;;;;;13.70;73.91;100707.59;5055000;28;56262;-60
2022/11/07 01:41:20;;;;;;;;;6.33;2.67;;;;;13.71;74.05;100710.31;5054915;28;45171;-59
2022/11/07 01:43:45;;;;;;;;;4.33;2.00;;;;;13.72;73.62;100716.56;5056270;28;45032;-58
2022/11/07 01:46:11;;;;;;;;;5.33;3.67;;;;;13.72;73.51;100709.41;5060296;28;45155;-59
2022/11/07 01:48:38;;;;;;;;;4.00;1.67;;;;;13.71;73.90;100710.31;5054520;28;45083;-59
2022/11/07 01:51:05;;;;;;;;;4.67;3.67;;;;;13.69;73.46;100700.41;5055613;28;45995;-59
2022/11/07 01:53:31;;;;;;;;;4.00;3.67;;;;;13.63;73.53;100690.53;5055073;28;45315;-59
2022/11/07 01:55:56;;;;;;;;;4.00;3.33;;;;;13.67;73.81;100703.09;5064666;28;45051;-59
2022/11/07 01:58:22;;;;;;;;;3.33;2.00;;;;;13.60;74.32;100711.94;5063704;28;45637;-58
2022/11/07 02:00:47;;;;;;;;;4.00;1.67;;;;;13.62;73.87;100715.56;5055518;28;45147;-60
2022/11/07 02:03:16;;;;;;;;;3.00;2.00;;;;;13.58;74.26;100719.09;5042577;28;45234;-59
2022/11/07 02:06:12;;;;;;;;;5.00;3.00;;;;;13.62;74.34;100710.19;5058258;28;45675;-59
2022/11/07 02:08:39;;;;;;;;;2.33;1.00;;;;;13.61;74.42;100708.38;5056359;28;45188;-59
2022/11/07 02:11:05;;;;;;;;;2.33;1.00;;;;;13.57;74.46;100711.91;5055951;28;45005;-59
2022/11/07 02:13:31;;;;;;;;;0.67;0.67;;;;;13.62;74.19;100723.59;5056801;28;45155;-60
2022/11/07 02:16:04;;;;;;;;;3.33;2.00;;;;;13.60;74.35;100714.63;5056299;28;45406;-59
2022/11/07 02:18:32;;;;;;;;;1.33;1.33;;;;;13.56;74.15;100713.69;5057000;28;46003;-59
2022/11/07 02:21:06;;;;;;;;;4.33;1.33;;;;;13.63;73.92;100729.00;5054656;28;45011;-59
2022/11/07 02:23:45;;;;;;;;;7.33;4.00;;;;;13.61;74.01;100725.41;5060766;28;45216;-61
2022/11/07 02:26:10;;;;;;;;;1.33;1.33;;;;;13.61;74.15;100721.78;5059121;28;45258;-59
2022/11/07 02:28:39;;;;;;;;;1.33;1.33;;;;;13.55;74.41;100716.38;5053352;28;45108;-59
2022/11/07 02:31:04;;;;;;;;;2.00;2.00;;;;;13.61;74.28;100729.84;5053663;28;45124;-59
2022/11/07 02:33:30;;;;;;;;;5.67;3.00;;;;;13.64;73.91;100724.53;5059957;28;45418;-60
2022/11/07 02:35:55;;;;;;;;;3.00;1.00;;;;;13.63;73.63;100720.06;5055669;28;45709;-59
2022/11/07 02:38:30;;;;;;;;;6.00;4.67;;;;;13.61;74.43;100724.47;5050251;28;45323;-58
2022/11/07 02:41:00;;;;;;;;;5.33;3.33;;;;;13.63;74.36;100730.78;5056560;28;45555;-60
2022/11/07 02:43:27;;;;;;;;;3.00;2.00;;;;;13.58;73.82;100708.34;5057978;28;45353;-60
2022/11/07 02:45:56;;;;;;;;;10.00;1.33;;;;;13.59;73.65;100713.72;5060615;28;45221;-60
2022/11/07 02:48:26;;;;;;;;;2.67;1.67;;;;;13.62;73.26;100710.19;5053380;28;45965;-60
2022/11/07 02:50:51;;;;;;;;;2.33;2.00;;;;;13.61;73.79;100714.66;5055084;28;45155;-60
2022/11/07 02:53:17;;;;;;;;;6.67;1.00;;;;;13.59;73.65;100711.03;5057412;28;45105;-59
2022/11/07 02:55:42;;;;;;;;;4.00;2.67;;;;;13.62;73.52;100710.19;5056455;28;45275;-60
2022/11/07 02:58:07;;;;;;;;;4.33;1.33;;;;;13.63;73.57;100707.53;5059647;28;45106;-60
2022/11/07 03:00:33;;;;;;;;;4.67;1.00;;;;;13.63;73.57;100704.84;5054659;28;44981;-58
2022/11/07 03:02:58;;;;;;;;;4.00;1.67;;;;;13.60;73.42;100695.84;5053630;28;44969;-59
2022/11/07 03:05:23;;;;;;;;;4.33;1.00;;;;;13.65;73.45;100702.16;5052824;28;45037;-58
2022/11/07 03:07:49;;;;;;;;;3.00;1.67;;;;;13.60;73.04;100694.06;5058837;28;48876;-58
2022/11/07 03:10:16;;;;;;;;;1.00;1.00;;;;;13.67;73.37;100705.78;5052514;28;54605;-58
2022/11/07 03:12:42;;;;;;;;;3.33;2.33;;;;;13.64;72.96;100703.97;5061305;28;45183;-60
2022/11/07 03:15:09;;;;;;;;;3.33;3.00;;;;;13.63;73.12;100702.16;5054397;28;45235;-60
2022/11/07 03:17:34;;;;;;;;;3.33;3.00;;;;;13.64;73.23;100711.09;5066923;28;45132;-60
2022/11/07 03:20:00;;;;;;;;;4.67;2.00;;;;;13.65;72.85;100718.28;5056218;28;45210;-59
2022/11/07 03:22:25;;;;;;;;;3.00;2.00;;;;;13.66;73.67;100730.84;5053611;28;45044;-59
2022/11/07 03:24:51;;;;;;;;;2.67;1.67;;;;;13.64;73.21;100713.78;5052711;28;46276;-59
2022/11/07 03:27:17;;;;;;;;;6.00;2.00;;;;;13.64;72.81;100719.16;5052918;28;45023;-60
2022/11/07 03:29:42;;;;;;;;;4.00;2.33;;;;;13.63;73.10;100729.00;5052079;28;45046;-60
2022/11/07 03:32:08;;;;;;;;;2.00;0.67;;;;;13.31;72.98;100672.16;5057243;28;44850;-59
2022/11/07 03:34:33;;;;;;;;;5.00;2.00;;;;;13.52;73.17;100714.53;5061391;28;45647;-59
2022/11/07 03:36:58;;;;;;;;;4.00;2.00;;;;;13.65;73.35;100734.38;5051417;28;45759;-59
2022/11/07 03:39:24;;;;;;;;;4.00;2.00;;;;;13.60;73.10;100725.38;5055087;28;45106;-59
2022/11/07 03:41:50;;;;;;;;;3.00;2.00;;;;;13.63;73.06;100729.00;5055150;28;45206;-59
2022/11/07 03:44:15;;;;;;;;;2.33;2.33;;;;;13.61;73.26;100717.34;5056678;28;45824;-59
2022/11/07 03:46:40;;;;;;;;;3.00;1.00;;;;;13.66;73.45;100725.47;5062352;28;48161;-59
2022/11/07 03:49:07;;;;;;;;;5.00;2.00;;;;;13.67;73.37;100715.63;5052313;28;52266;-59
2022/11/07 03:51:32;;;;;;;;;3.67;2.00;;;;;13.62;73.62;100708.38;5051609;28;45165;-58
2022/11/07 03:53:58;;;;;;;;;8.67;2.00;;;;;13.68;73.31;100703.97;5055411;28;45096;-59
2022/11/07 03:56:23;;;;;;;;;5.33;2.00;;;;;13.64;74.00;100706.66;5055243;28;45371;-60
2022/11/07 03:58:48;;;;;;;;;3.33;1.67;;;;;13.68;73.53;100703.97;5051624;28;50003;-60
2022/11/07 04:01:14;;;;;;;;;4.00;3.00;;;;;13.69;73.25;100717.44;5059800;28;45112;-58
2022/11/07 04:03:39;;;;;;;;;0.33;0.33;;;;;13.60;73.81;100701.22;5051373;28;45747;-60
2022/11/07 04:06:04;;;;;;;;;7.33;2.33;;;;;13.63;73.32;100706.63;5055765;28;45378;-59
2022/11/07 04:08:30;;;;;;;;;3.00;1.00;;;;;13.62;73.54;100704.81;5062152;28;45259;-60
2022/11/07 04:10:55;;;;;;;;;3.00;2.00;;;;;13.51;74.01;100682.28;5057519;28;45042;-60
2022/11/07 04:18:50;;;;;;;;;7.67;2.00;;;;;13.63;73.80;100702.16;5054387;28;45223;-60
2022/11/07 04:21:15;;;;;;;;;9.67;5.00;;;;;13.69;73.84;100704.00;5051643;28;45242;-59
2022/11/07 04:23:41;;;;;;;;;4.00;1.67;;;;;13.67;73.81;100691.47;5054546;28;53984;-59
2022/11/07 04:28:50;;;;;;;;;3.00;1.67;;;;;13.76;73.93;100696.91;5052585;28;46255;-58
2022/11/07 04:31:16;;;;;;;;;2.00;2.00;;;;;13.80;73.88;100701.47;5058221;28;45345;-59
2022/11/07 04:33:41;;;;;;;;;3.33;3.33;;;;;13.76;73.43;100700.53;5052762;28;45810;-59
2022/11/07 04:36:06;;;;;;;;;5.00;2.33;;;;;13.43;73.83;100652.69;5046969;28;60484;-61
2022/11/07 04:38:32;;;;;;;;;6.00;2.67;;;;;13.76;73.41;100713.97;5047740;28;45199;-60
2022/11/07 04:40:57;;;;;;;;;2.33;2.00;;;;;13.64;73.76;100690.53;5051475;28;45315;-59
2022/11/07 04:43:25;;;;;;;;;4.67;2.00;;;;;13.71;73.42;100707.63;5059779;28;46011;-60
2022/11/07 04:45:51;;;;;;;;;5.67;0.67;;;;;13.74;73.74;100722.84;5068677;28;45091;-59
2022/11/07 04:48:17;;;;;;;;;3.33;1.00;;;;;13.74;74.14;100714.81;5051621;28;45190;-59
2022/11/07 04:50:43;;;;;;;;;9.33;2.33;;;;;13.76;73.59;100713.03;5051418;28;45233;-61
2022/11/07 04:53:16;;;;;;;;;3.33;2.00;;;;;13.76;73.98;100718.41;5064936;28;45397;-59
2022/11/07 04:55:42;;;;;;;;;4.00;1.00;;;;;13.80;73.65;100717.56;5060046;28;45058;-60
2022/11/07 04:58:08;;;;;;;;;2.33;1.00;;;;;13.79;73.52;100711.31;5051680;28;44988;-59
2022/11/07 05:00:33;;;;;;;;;1.33;1.33;;;;;13.79;73.22;100714.00;5056013;28;45179;-59
2022/11/07 05:02:59;;;;;;;;;3.00;1.33;;;;;13.79;73.73;100719.38;5051315;28;45336;-59
2022/11/07 05:05:24;;;;;;;;;2.67;2.67;;;;;13.80;73.81;100715.78;5051595;28;45075;-59
2022/11/07 05:07:49;;;;;;;;;4.00;4.00;;;;;13.84;73.95;100711.34;5052796;28;45038;-59
2022/11/07 05:10:18;;;;;;;;;7.00;4.33;;;;;13.85;73.46;100704.22;5049869;28;45649;-59
2022/11/07 05:12:43;;;;;;;;;6.00;3.33;;;;;13.85;73.68;100696.16;5054560;28;45712;-59
2022/11/07 05:15:09;;;;;;;;;0.67;0.00;;;;;13.81;73.80;100698.81;5053156;28;45358;-58
2022/11/07 05:17:34;;;;;;;;;7.67;3.00;;;;;13.81;73.52;100704.16;5050657;28;45293;-59
2022/11/07 05:20:00;;;;;;;;;6.00;4.00;;;;;13.82;74.10;100705.94;5051159;28;45225;-59
2022/11/07 05:25:09;;;;;;;;;2.00;1.00;;;;;13.80;73.84;100707.72;5050780;28;44950;-59
2022/11/07 05:27:34;;;;;;;;;10.67;2.67;;;;;13.88;73.58;100723.94;5051056;28;45083;-58
2022/11/07 05:29:59;;;;;;;;;3.00;3.00;;;;;13.83;73.89;100721.19;5053737;28;45333;-59
2022/11/07 05:32:25;;;;;;;;;1.33;1.33;;;;;13.91;73.53;100723.06;5049933;28;45097;-59
2022/11/07 05:34:50;;;;;;;;;5.33;2.67;;;;;13.96;73.50;100734.78;5050729;28;45125;-58
2022/11/07 05:37:16;;;;;;;;;1.00;1.00;;;;;13.87;73.44;100724.81;5051011;28;45108;-60
2022/11/07 05:39:41;;;;;;;;;4.00;0.33;;;;;13.94;73.32;100745.53;5054859;28;45084;-59
2022/11/07 05:42:07;;;;;;;;;2.67;2.67;;;;;13.96;73.73;100742.84;5052491;28;63915;-60
2022/11/07 05:44:32;;;;;;;;;5.67;3.00;;;;;13.96;73.64;100751.81;5056512;28;45077;-59
2022/11/07 05:46:58;;;;;;;;;7.00;3.00;;;;;13.99;73.60;100754.53;5058222;28;45216;-60
2022/11/07 05:49:24;;;;;;;;;2.67;1.00;;;;;13.91;73.72;100731.13;5040934;28;45240;-60
2022/11/07 05:51:49;;;;;;;;;6.00;2.33;;;;;14.04;73.54;100749.22;5054899;28;45572;-60
2022/11/07 05:54:15;;;;;;;;;2.33;1.00;;;;;14.05;73.62;100750.13;5052824;28;45191;-60
2022/11/07 05:56:42;;;;;;;;;2.67;2.00;;;;;13.73;72.97;100697.81;5056402;28;45511;-61
2022/11/07 05:59:08;;;;;;;;;1.33;1.33;;;;;14.06;73.60;100754.63;5052742;28;45168;-60
2022/11/07 06:01:34;;;;;;;;;3.67;1.67;;;;;13.96;73.44;100740.16;5050698;28;45276;-59
2022/11/07 06:03:59;;;;;;;;;15.33;9.33;;;;;14.07;73.16;100759.97;5050768;28;45028;-60
2022/11/07 06:06:24;;;;;;;;;4.67;2.67;;;;;14.07;73.29;100753.72;5050983;28;52588;-59
2022/11/07 06:08:50;;;;;;;;;7.00;4.67;;;;;14.09;73.44;100755.56;5056278;28;45165;-61
2022/11/07 06:11:15;;;;;;;;;2.33;2.00;;;;;14.10;73.21;100745.69;5061799;28;49928;-59
2022/11/07 06:13:40;;;;;;;;;4.00;4.00;;;;;14.11;72.96;100751.09;5053304;28;44891;-59
2022/11/07 06:16:06;;;;;;;;;4.00;4.00;;;;;14.10;73.00;100749.28;5054956;28;44962;-61
2022/11/07 06:18:36;;;;;;;;;4.00;2.67;;;;;14.03;73.51;100741.13;5054060;28;44931;-60
2022/11/07 06:21:01;;;;;;;;;4.00;2.67;;;;;14.11;72.97;100747.50;5062085;28;46819;-60
2022/11/07 06:23:27;;;;;;;;;3.33;2.00;;;;;14.12;72.62;100766.34;5067340;28;45089;-62
2022/11/07 06:25:52;;;;;;;;;1.67;1.00;;;;;14.12;72.67;100765.41;5058103;28;45088;-59
2022/11/07 06:28:17;;;;;;;;;1.67;1.00;;;;;14.14;72.97;100769.03;5057836;28;45165;-60
2022/11/07 06:30:43;;;;;;;;;4.00;3.00;;;;;14.15;72.53;100771.72;5058484;28;45288;-61
2022/11/07 06:33:17;;;;;;;;;3.00;2.00;;;;;14.16;72.99;100772.66;5058727;28;44767;-59
2022/11/07 06:35:43;;;;;;;;;22.67;10.67;;;;;14.16;72.77;100778.91;5053339;28;45001;-61
2022/11/07 06:38:11;;;;;;;;;2.00;2.00;;;;;14.15;73.08;100773.50;5048359;28;45181;-59
2022/11/07 06:40:37;;;;;;;;;5.33;3.67;;;;;14.21;72.87;100778.97;5060806;28;45503;-61
2022/11/07 06:43:14;;;;;;;;;7.33;2.00;;;;;14.23;72.77;100773.63;5055788;28;45151;-60
2022/11/07 06:45:40;;;;;;;;;5.67;3.67;;;;;14.25;72.86;100774.53;5062891;28;45253;-59
2022/11/07 06:48:06;;;;;;;;;7.00;4.00;;;;;14.28;72.82;100772.78;5066934;28;45181;-61
2022/11/07 06:50:33;;;;;;;;;8.00;2.67;;;;;14.29;72.78;100771.00;5061711;28;45607;-60
2022/11/07 06:53:03;;;;;;;;;6.00;3.33;;;;;14.30;72.93;100772.78;5059554;28;45127;-60
2022/11/07 06:55:28;;;;;;;;;6.33;5.00;;;;;14.31;72.69;100769.22;5062641;28;45007;-59
2022/11/07 06:57:57;;;;;;;;;5.00;2.00;;;;;14.31;72.76;100786.25;5056830;28;45089;-60
2022/11/07 07:00:22;;;;;;;;;8.33;4.00;;;;;14.32;72.44;100785.38;5057371;28;45270;-59
2022/11/07 07:02:48;;;;;;;;;8.00;4.67;;;;;14.30;72.67;100780.84;5057111;28;58654;-59
2022/11/07 07:05:13;;;;;;;;;4.67;4.00;;;;;14.32;72.60;100781.75;5058441;28;45998;-59
2022/11/07 07:07:38;;;;;;;;;7.67;3.67;;;;;14.31;72.55;100782.66;5054475;28;45119;-60
2022/11/07 07:10:04;;;;;;;;;11.33;4.67;;;;;14.33;72.91;100789.84;5054528;28;57478;-61
2022/11/07 07:12:30;;;;;;;;;8.00;5.67;;;;;14.30;72.93;100786.22;5053741;28;45187;-59
2022/11/07 07:14:55;;;;;;;;;4.00;4.00;;;;;14.34;72.58;100788.09;5037966;28;45247;-60
2022/11/07 07:17:21;;;;;;;;;6.00;5.00;;;;;14.33;73.14;100788.97;5049970;28;46542;-60
2022/11/07 07:19:46;;;;;;;;;6.67;4.67;;;;;14.30;72.86;100780.84;5060870;28;45646;-61
2022/11/07 07:22:12;;;;;;;;;6.67;5.67;;;;;14.36;73.36;100783.63;5043980;28;45096;-61
2022/11/07 07:24:38;;;;;;;;;9.33;5.00;;;;;14.39;73.79;100786.34;5052759;28;45148;-61
2022/11/07 07:27:03;;;;;;;;;8.67;5.00;;;;;14.46;72.73;100796.28;5040109;28;45111;-61
2022/11/07 07:29:29;;;;;;;;;11.00;7.00;;;;;14.46;72.98;100798.06;5053359;28;45656;-59
2022/11/07 07:31:54;;;;;;;;;16.67;9.00;;;;;14.45;73.09;100786.44;5052718;28;52860;-60
2022/11/07 07:34:19;;;;;;;;;8.00;6.00;;;;;14.42;72.83;100790.84;5060802;28;45245;-59
2022/11/07 07:36:44;;;;;;;;;8.67;5.00;;;;;14.45;73.09;100797.19;5067716;28;46065;-61
2022/11/07 07:39:10;;;;;;;;;5.67;4.67;;;;;14.47;73.09;100798.09;5055164;28;45260;-59
2022/11/07 07:41:35;;;;;;;;;17.00;10.00;;;;;14.41;73.44;100779.19;5056647;28;46267;-60
2022/11/07 07:44:00;;;;;;;;;10.33;5.33;;;;;14.50;73.28;100792.75;5045071;28;45495;-61
2022/11/07 07:46:26;;;;;;;;;6.67;3.33;;;;;14.52;73.37;100795.47;5037103;28;45506;-61
2022/11/07 07:48:51;;;;;;;;;12.67;6.00;;;;;14.42;73.08;100781.00;5050595;28;45505;-61
2022/11/07 07:51:17;;;;;;;;;6.67;5.00;;;;;14.51;73.09;100789.16;5039299;28;45482;-60
2022/11/07 07:53:42;;;;;;;;;8.33;4.00;;;;;14.47;73.33;100795.41;5053187;28;45715;-61
2022/11/07 07:56:07;;;;;;;;;5.33;3.00;;;;;14.51;72.99;100789.16;5041242;28;45500;-63
2022/11/07 07:58:33;;;;;;;;;7.67;4.00;;;;;14.53;72.73;100790.06;5039061;28;58766;-61
2022/11/07 08:00:58;;;;;;;;;5.33;3.00;;;;;14.56;72.99;100798.16;5047756;28;45503;-61
2022/11/07 08:03:26;;;;;;;;;10.67;5.67;;;;;14.56;73.24;100799.97;5042414;28;45541;-62
2022/11/07 08:05:57;;;;;;;;;3.00;2.00;;;;;14.60;73.03;100809.91;5041768;28;45482;-60
2022/11/07 08:08:24;;;;;;;;;5.33;4.67;;;;;14.63;73.09;100822.47;5039887;28;47290;-60
2022/11/07 08:10:53;;;;;;;;;6.00;4.00;;;;;14.66;72.96;100809.97;5050401;28;45458;-60
2022/11/07 08:13:23;;;;;;;;;6.33;2.67;;;;;14.68;72.75;100816.28;5023975;28;45575;-62
2022/11/07 08:15:50;;;;;;;;;3.67;2.33;;;;;14.68;72.85;100804.59;5039457;28;45545;-61
2022/11/07 08:18:16;;;;;;;;;4.00;4.00;;;;;14.74;72.64;100823.50;5043581;28;45432;-61
2022/11/07 08:20:42;;;;;;;;;13.00;5.33;;;;;14.78;72.90;100836.06;5035878;28;45241;-62
2022/11/07 08:23:09;;;;;;;;;4.33;4.00;;;;;14.81;72.69;100817.28;5031705;28;45430;-62
2022/11/07 08:25:35;;;;;;;;;3.67;3.00;;;;;14.86;72.43;100831.69;5057797;28;45303;-61
2022/11/07 08:28:00;;;;;;;;;3.00;3.00;;;;;14.59;72.20;100772.22;5037690;28;45860;-61
2022/11/07 08:30:27;;;;;;;;;7.00;4.00;;;;;14.92;71.98;100825.47;5039749;28;45441;-62
2022/11/07 08:32:52;;;;;;;;;2.00;2.00;;;;;14.96;72.01;100824.59;5037513;28;45496;-60
2022/11/07 08:35:18;;;;;;;;;2.67;2.67;;;;;14.93;71.48;100816.50;5040671;28;45371;-60
2022/11/07 08:37:43;;;;;;;;;8.00;5.00;;;;;14.99;71.82;100821.94;5025883;28;47303;-61
2022/11/07 08:40:09;;;;;;;;;5.33;3.33;;;;;15.02;71.40;100821.09;5041257;28;45513;-61
2022/11/07 08:42:35;;;;;;;;;8.00;3.00;;;;;15.02;71.33;100830.06;5046286;28;45433;-61
2022/11/07 08:45:00;;;;;;;;;3.67;2.00;;;;;14.95;71.06;100809.38;5047421;28;45202;-61
2022/11/07 08:47:27;;;;;;;;;4.00;2.00;;;;;15.08;71.01;100826.53;5039286;28;46588;-62
2022/11/07 08:49:52;;;;;;;;;8.67;4.00;;;;;15.15;71.26;100839.16;5044724;28;45576;-61
2022/11/07 08:52:17;;;;;;;;;10.33;2.67;;;;;15.18;70.68;100830.19;5035788;28;45753;-61
2022/11/07 08:54:43;;;;;;;;;5.67;5.67;;;;;15.22;70.88;100837.41;5026528;28;45311;-61
2022/11/07 08:57:09;;;;;;;;;2.00;1.67;;;;;15.25;70.53;100835.63;5035232;28;45549;-61
2022/11/07 08:59:34;;;;;;;;;5.00;3.33;;;;;15.27;70.27;100836.53;5028537;28;45534;-62
2022/11/07 09:02:00;;;;;;;;;3.67;1.00;;;;;15.30;70.01;100827.59;5049165;28;45640;-61
2022/11/07 09:04:25;;;;;;;;;4.33;2.00;;;;;15.28;70.41;100846.44;5040834;28;45705;-61
2022/11/07 09:06:50;;;;;;;;;7.00;3.33;;;;;15.29;70.30;100845.56;5033760;28;46185;-61
2022/11/07 09:09:16;;;;;;;;;5.33;2.33;;;;;15.26;70.23;100840.16;5037930;28;45398;-61
2022/11/07 09:11:41;;;;;;;;;2.67;2.00;;;;;15.29;70.37;100848.25;5038251;28;45730;-61
2022/11/07 09:14:07;;;;;;;;;6.00;4.00;;;;;15.27;70.19;100854.50;5035845;28;51827;-61
2022/11/07 09:16:32;;;;;;;;;7.00;5.67;;;;;15.24;70.41;100852.66;5035827;28;46445;-64
2022/11/07 09:18:57;;;;;;;;;6.00;3.33;;;;;15.27;70.49;100852.69;5039611;28;45542;-61
2022/11/07 09:21:23;;;;;;;;;2.00;2.00;;;;;15.32;70.64;100859.94;5031055;28;45451;-62
2022/11/07 09:23:49;;;;;;;;;2.33;1.33;;;;;15.23;70.13;100836.53;5035269;28;45751;-61
2022/11/07 09:26:14;;;;;;;;;7.67;3.00;;;;;15.30;69.92;100851.84;5044177;28;45453;-62
2022/11/07 09:28:40;;;;;;;;;5.67;3.33;;;;;15.25;70.20;100851.78;5044740;28;45552;-61
2022/11/07 09:31:05;;;;;;;;;2.67;2.00;;;;;15.31;70.15;100861.72;5029841;28;45786;-62
2022/11/07 09:33:31;;;;;;;;;5.33;3.67;;;;;15.36;70.10;100854.59;5043755;28;45673;-62
2022/11/07 09:36:01;;;;;;;;;3.33;1.67;;;;;15.41;70.04;100862.69;5042553;28;45504;-61
2022/11/07 09:38:27;;;;;;;;;4.33;4.00;;;;;15.42;69.65;100861.81;5039626;28;45962;-62
2022/11/07 09:41:09;;;;;;;;;3.00;3.00;;;;;15.17;69.80;100802.38;5038333;28;45483;-62
2022/11/07 09:43:56;;;;;;;;;7.00;5.33;;;;;15.53;69.91;100857.41;5040237;28;45496;-61
2022/11/07 09:46:52;;;;;;;;;3.00;2.00;;;;;15.57;69.52;100864.59;5049303;28;46812;-62
2022/11/07 09:49:29;;;;;;;;;6.00;6.00;;;;;15.64;69.27;100857.47;5038854;28;45604;-61
2022/11/07 09:52:16;;;;;;;;;6.33;4.33;;;;;15.73;68.92;100860.25;5048136;28;45326;-61
2022/11/07 09:54:49;;;;;;;;;7.33;2.33;;;;;15.76;68.89;100868.38;5046528;28;45295;-61
2022/11/07 09:57:17;;;;;;;;;6.00;3.67;;;;;15.81;68.82;100861.22;5045191;28;46270;-61
2022/11/07 10:00:14;;;;;;;;;2.67;1.67;;;;;15.84;68.41;100873.84;5048004;28;45664;-62
2022/11/07 10:02:46;;;;;;;;;2.67;1.67;;;;;15.87;68.02;100871.13;5021382;28;45541;-62
2022/11/07 10:05:15;;;;;;;;;5.00;0.67;;;;;15.89;67.84;100872.06;5039230;28;45413;-62
2022/11/07 10:07:53;;;;;;;;;4.00;1.33;;;;;15.88;67.68;100866.66;5047518;28;46130;-61
2022/11/07 10:10:24;;;;;;;;;5.33;2.67;;;;;15.92;67.68;100864.00;5044669;28;45931;-61
2022/11/07 10:13:33;;;;;;;;;2.67;2.67;;;;;15.96;67.89;100868.50;5039041;28;45581;-62
2022/11/07 10:16:10;;;;;;;;;7.33;2.33;;;;;16.03;67.94;100870.34;5047006;28;45607;-64
2022/11/07 10:19:03;;;;;;;;;4.67;3.00;;;;;16.06;67.29;100879.34;5044003;28;46125;-61
2022/11/07 10:22:07;;;;;;;;;2.00;2.00;;;;;16.08;67.78;100875.75;5038019;28;45496;-61
2022/11/07 10:24:45;;;;;;;;;2.33;2.00;;;;;16.08;67.10;100858.69;5020375;28;45564;-61
2022/11/07 10:27:11;;;;;;;;;7.67;7.67;;;;;16.08;67.07;100856.00;5044647;28;45512;-63
2022/11/07 10:29:49;;;;;;;;;1.00;1.00;;;;;16.07;67.37;100852.41;5043276;28;45994;-61
2022/11/07 10:32:40;;;;;;;;;5.67;4.00;;;;;16.13;67.02;100860.50;5043233;28;45540;-60
2022/11/07 10:35:11;;;;;;;;;8.33;4.33;;;;;16.23;66.91;100849.78;5040400;28;45307;-61
2022/11/07 10:37:36;;;;;;;;;2.67;2.33;;;;;16.27;66.52;100849.81;5042027;28;46014;-61
2022/11/07 10:40:08;;;;;;;;;2.67;2.67;;;;;16.25;66.56;100840.84;5040969;28;58672;-61
2022/11/07 10:42:34;;;;;;;;;3.33;2.33;;;;;16.31;66.22;100857.00;5049984;28;45563;-60
2022/11/07 10:44:59;;;;;;;;;3.00;3.00;;;;;16.32;66.53;100845.34;5056086;28;45453;-61
2022/11/07 10:47:26;;;;;;;;;4.33;3.00;;;;;16.30;66.20;100852.53;5047439;28;45693;-61
2022/11/07 10:49:53;;;;;;;;;3.67;3.00;;;;;16.29;66.72;100842.63;5044050;28;45440;-61
2022/11/07 10:52:19;;;;;;;;;4.33;3.33;;;;;16.33;66.58;100846.22;5062467;28;46114;-61
2022/11/07 10:54:45;;;;;;;;;1.67;1.67;;;;;16.32;66.10;100855.25;5055896;28;45136;-60
2022/11/07 10:57:15;;;;;;;;;4.00;2.33;;;;;16.34;66.72;100848.94;5056463;28;45085;-61
2022/11/07 10:59:53;;;;;;;;;3.33;2.00;;;;;16.35;66.16;100848.06;5056326;28;47228;-60
2022/11/07 11:02:20;;;;;;;;;8.33;2.67;;;;;16.25;66.39;100830.06;5056033;28;45142;-60
2022/11/07 11:05:03;;;;;;;;;2.67;2.67;;;;;16.45;66.73;100856.16;5043282;28;45541;-59
2022/11/07 11:07:33;;;;;;;;;4.67;3.00;;;;;16.48;66.18;100848.09;5044431;28;45296;-60
2022/11/07 11:09:59;;;;;;;;;6.33;3.33;;;;;16.45;66.21;100851.69;5051567;28;45534;-59
2022/11/07 11:12:32;;;;;;;;;3.67;1.00;;;;;16.49;65.90;100841.81;5065149;28;45167;-61
2022/11/07 11:15:13;;;;;;;;;5.00;3.00;;;;;16.52;65.75;100847.22;5053600;28;45200;-61
2022/11/07 11:17:39;;;;;;;;;2.67;1.00;;;;;16.54;64.99;100838.22;5049756;28;45144;-61
2022/11/07 11:20:07;;;;;;;;;7.67;3.33;;;;;16.56;65.22;100830.13;5052863;28;45695;-64
2022/11/07 11:22:41;;;;;;;;;8.00;5.33;;;;;16.61;65.27;100825.66;5053044;28;45026;-62
2022/11/07 11:25:10;;;;;;;;;3.33;2.67;;;;;16.69;65.01;100823.00;5053269;28;45030;-60
2022/11/07 11:27:37;;;;;;;;;3.67;2.00;;;;;16.77;64.87;100823.91;5053674;28;45140;-61
2022/11/07 11:30:06;;;;;;;;;3.67;3.67;;;;;16.81;64.50;100820.31;5057116;28;45844;-62
2022/11/07 11:32:44;;;;;;;;;3.00;3.00;;;;;16.88;64.39;100834.78;5052351;28;45310;-62
2022/11/07 11:35:28;;;;;;;;;2.67;2.67;;;;;16.88;64.09;100832.06;5063441;28;45094;-60
2022/11/07 11:38:09;;;;;;;;;3.33;2.00;;;;;16.67;64.12;100782.50;5051875;28;45084;-61
2022/11/07 11:40:39;;;;;;;;;6.33;3.00;;;;;17.03;63.79;100826.69;5061804;28;45068;-62